Aérodrome :
LOGIN :

S'inscrire | Disclaimer

   EN    FR    IT 

 










Légende :    VFR   VFR Marginal   IFR   IFR Intensif   IFR Très Intensif
Visi : 
Plafond : 
>= 8 km
>= 3000ft
5 à 8 km
1000 à 3000 ft
1500m à 5 km
500 à 1000 ft
800 à 1500m
200 à 500 ft
< 800m
< 200 ft
Symboles :   Orages  Brouillard  Fortes neiges  Fortes précipitations  Vent > 20 kt
SIGMETs :   Divers  Orages  Givrage  Turbulence  Onde Orograph.  Cendres Volcan.







- Altitude de l'aérodrome : 203 ft
- Code IATA : XMJ
- Voir les cartes d'approche


LFBM - Mont-De-Marsan

DERNIER METAR :
  • 211930Z AUTO 25008KT 9999 SCT020 BKN072 22/18 Q1020 NOSIG

METARs EXPIRÉS :
  • 211900Z AUTO 25008KT 9999 OVC021 23/19 Q1020 NOSIG
  • 211830Z AUTO 26009KT 9999 OVC021 23/19 Q1020 NOSIG
  • 211800Z AUTO 24009KT 9999 OVC020 23/19 Q1020 NOSIG
  • 211730Z AUTO 26009KT 9999 SCT021 25/19 Q1020 NOSIG
  • 211700Z AUTO 25009KT 9999 FEW024 25/19 Q1020 NOSIG

TAF TAF LFBM
Valide du 21 à 15h jusqu'au 22 à 15h UTC


211400Z 2115/2215 27010KT 9999 SCT030
TEMPO 2115/2124 27015KT
BECMG 2122/2124 BKN008
Pas de NOTAMs connus pour ce terrain.



MET'MAP, la Météo Aéronautique d'un coup d'oeil ! - Copyright ORBIFLY Décembre 2007 - Disclaimer

ORBIFLY MET'MAP TEAM :

Programmation & Développement : Alexandra Zaïnal
Conception & Développement : Baudouin d'Aumeries
Co-Programmation & Développement : Marc-Olivier Méhu
Soutien technique & logistique : Manuel Goepfert

Contact : metmap@orbifly.com




SOURCES & CREDITS :

   NOAA